Flight Track Log - Related Links

Times and Time Zones

All times are in EST time to prevent confusion due to time zone crossing. See the FFT976 flight status page for this flight to view local times or setup timezone preferences in your user account.

Time Position Orientation Groundspeed Altitude Reporting Facility
EST Latitude Longitude Course Direction KTS MPH feet Rate Location/Type
Wed 01:12:35 PM 26.0740 -80.0940 91° East 191 220 1,800  Level FlightAware ADS-B
Wed 01:12:49 PM 26.0740 -80.0810 90° East 213 245 2,200 2,786 Climbing FlightAware ADS-B
Wed 01:13:31 PM 26.0880 -80.0390 70° East 212 244 4,400 2,786 Climbing FlightAware ADS-B
Wed 01:13:45 PM 26.1030 -80.0330 20° North 238 274 4,800 556 Climbing FlightAware ADS-B
Wed 01:14:25 PM 26.1410 -80.0560 331° Northwest 257 296 4,900  Climbing FlightAware ADS-B
Wed 01:14:59 PM 26.1760 -80.0860 322° Northwest 263 303 4,800 82 Descending FlightAware ADS-B
Wed 01:15:38 PM 26.2130 -80.1170 323° Northwest 260 299 5,000 1,235 Climbing FlightAware ADS-B
Wed 01:16:07 PM 26.2410 -80.1400 324° Northwest 268 308 6,200 2,677 Climbing FlightAware ADS-B
Wed 01:16:43 PM 26.2790 -80.1710 324° Northwest 280 322 7,900 2,954 Climbing FlightAware ADS-B
Wed 01:17:12 PM 26.3100 -80.1970 323° Northwest 282 325 9,400 2,535 Climbing FlightAware ADS-B
Wed 01:17:54 PM 26.3540 -80.2330 324° Northwest 304 350 10,900 1,575 Climbing FlightAware ADS-B
Wed 01:18:32 PM 26.4020 -80.2730 323° Northwest 348 400 11,500 943 Climbing FlightAware ADS-B
Wed 01:19:04 PM 26.4480 -80.3040 329° Northwest 386 444 12,000 1,756 Climbing FlightAware ADS-B
Wed 01:19:54 PM 26.5340 -80.3340 343° North 399 459 13,900 2,386 Climbing FlightAware ADS-B
Wed 01:20:27 PM 26.5920 -80.3550 342° North 395 455 15,300 2,235 Climbing FlightAware ADS-B
Wed 01:21:36 PM 26.7160 -80.3980 343° North 403 464 17,700 1,953 Climbing FlightAware ADS-B
Wed 01:22:36 PM 26.8240 -80.4370 342° North 410 472 19,500 1,642 Climbing FlightAware ADS-B
Wed 01:23:11 PM 26.8880 -80.4600 342° North 417 480 20,300 1,417 Climbing FlightAware ADS-B
Wed 01:23:48 PM 26.9570 -80.4840 343° North 425 489 21,200 1,459 Climbing FlightAware ADS-B
Wed 01:24:25 PM 27.0260 -80.5090 342° North 432 497 22,100 1,456 Climbing FlightAware ADS-B
Wed 01:25:31 PM 27.1510 -80.5530 343° North 439 505 23,700 1,941 Climbing FlightAware ADS-B
Wed 01:26:07 PM 27.2230 -80.5780 343° North 418 481 25,400 2,593 Climbing FlightAware ADS-B
Wed 01:26:52 PM 27.3050 -80.6080 342° North 400 460 27,200 1,824 Climbing FlightAware ADS-B
Wed 01:27:49 PM 27.4050 -80.6440 342° North 402 463 28,500 1,097 Climbing FlightAware ADS-B
Wed 01:28:25 PM 27.4690 -80.6670 342° North 415 478 28,900 609 Climbing FlightAware ADS-B
Wed 01:28:58 PM 27.5310 -80.6890 343° North 428 493 29,200 771 Climbing FlightAware ADS-B
Wed 01:29:35 PM 27.6000 -80.7140 342° North 433 498 29,800 1,216 Climbing FlightAware ADS-B
Wed 01:30:12 PM 27.6700 -80.7390 342° North 428 493 30,700 1,348 Climbing FlightAware ADS-B
Wed 01:31:04 PM 27.7690 -80.7740 343° North 428 493 31,800 1,200 Climbing FlightAware ADS-B
Wed 01:31:42 PM 27.8420 -80.8010 342° North 430 495 32,500 1,254 Climbing FlightAware ADS-B
Wed 01:32:11 PM 27.8970 -80.8210 342° North 426 490 33,200 1,241 Climbing FlightAware ADS-B
Wed 01:32:40 PM 27.9510 -80.8400 343° North 424 488 33,700 1,068 Climbing FlightAware ADS-B
Wed 01:33:24 PM 28.0300 -80.8690 342° North 423 487 34,500 750 Climbing FlightAware ADS-B
Wed 01:34:24 PM 28.1390 -80.9080 342° North 420 483 35,000 278 Climbing FlightAware ADS-B
Wed 01:35:12 PM 28.2300 -80.9410 342° North 417 480 35,000  Level FlightAware ADS-B
Wed 01:36:12 PM 28.3430 -80.9830 342° North 416 479 35,000  Level FlightAware ADS-B
Wed 01:36:52 PM 28.4150 -81.0080 343° North 412 474 35,000  Level FlightAware ADS-B
Wed 01:37:58 PM 28.5350 -81.0530 342° North 409 471 35,000  Level FlightAware ADS-B
Wed 01:38:54 PM 28.6340 -81.0890 342° North 411 473 35,000  Level FlightAware ADS-B
Wed 01:39:36 PM 28.7110 -81.1170 342° North 415 478 35,000  Level FlightAware ADS-B
Wed 01:40:15 PM 28.7890 -81.1360 348° North 421 484 35,000  Level FlightAware ADS-B
Wed 01:40:48 PM 28.8520 -81.1510 348° North 421 484 35,000  Level FlightAware ADS-B
Wed 01:41:30 PM 28.9320 -81.1700 348° North 419 482 35,000  Level FlightAware ADS-B
Wed 01:42:11 PM 29.0090 -81.1880 348° North 417 480 35,000  Level FlightAware ADS-B
Wed 01:42:48 PM 29.0790 -81.2050 348° North 415 478 35,000  Level FlightAware ADS-B
Wed 01:43:44 PM 29.1860 -81.2300 348° North 413 475 35,000  Level FlightAware ADS-B
Wed 01:44:15 PM 29.2440 -81.2440 348° North 412 474 35,000  Level FlightAware ADS-B
Wed 01:44:52 PM 29.3120 -81.2610 348° North 412 474 35,000  Level FlightAware ADS-B
Wed 01:45:19 PM 29.3630 -81.2730 348° North 412 474 35,000  Level FlightAware ADS-B
Wed 01:46:01 PM 29.4400 -81.2920 348° North 412 474 35,000  Level FlightAware ADS-B
Wed 01:46:39 PM 29.5150 -81.3090 349° North 413 475 35,000  Level FlightAware ADS-B
Wed 01:47:19 PM 29.5870 -81.3270 348° North 414 476 35,000  Level FlightAware ADS-B
Wed 01:47:51 PM 29.6480 -81.3420 348° North 413 475 35,000  Level FlightAware ADS-B
Wed 01:48:22 PM 29.7030 -81.3550 348° North 413 475 35,000  Level FlightAware ADS-B
Wed 01:49:01 PM 29.7770 -81.3730 348° North 412 474 35,000  Level FlightAware ADS-B
Wed 01:49:54 PM 29.8780 -81.3970 348° North 413 475 35,000  Level FlightAware ADS-B
Wed 01:50:51 PM 29.9840 -81.4230 348° North 413 475 35,000  Level FlightAware ADS-B
Wed 01:51:23 PM 30.0450 -81.4380 348° North 411 473 35,000  Level FlightAware ADS-B
Wed 01:51:54 PM 30.1030 -81.4520 348° North 409 471 35,000  Level FlightAware ADS-B
Wed 01:52:29 PM 30.1680 -81.4680 348° North 406 467 35,000  Level FlightAware ADS-B
Wed 01:53:10 PM 30.2410 -81.4860 348° North 403 464 35,000  Level FlightAware ADS-B
Wed 01:54:18 PM 30.3700 -81.5050 353° North 424 488 35,000  Level FlightAware ADS-B
Wed 01:54:49 PM 30.4290 -81.5030 North 435 501 35,000  Level FlightAware ADS-B
Wed 01:55:27 PM 30.5050 -81.4970 North 436 502 35,000  Level FlightAware ADS-B
Wed 01:56:01 PM 30.5720 -81.4910 North 438 504 35,000  Level FlightAware ADS-B
Wed 01:56:46 PM 30.6680 -81.4830 North 440 506 35,000  Level FlightAware ADS-B
Wed 01:57:23 PM 30.7420 -81.4770 North 440 506 35,000  Level FlightAware ADS-B
Wed 01:57:56 PM 30.8070 -81.4720 North 440 506 35,000  Level FlightAware ADS-B
Wed 01:58:52 PM 30.9220 -81.4630 North 439 505 35,000  Level FlightAware ADS-B
Wed 01:59:25 PM 30.9920 -81.4570 North 440 506 35,000  Level FlightAware ADS-B
Wed 01:59:59 PM 31.0600 -81.4520 North 439 505 35,000  Level FlightAware ADS-B
Wed 02:00:30 PM 31.1230 -81.4460 North 437 503 35,000  Level FlightAware ADS-B
Wed 02:01:02 PM 31.1880 -81.4410 North 434 499 35,000  Level FlightAware ADS-B
Wed 02:02:11 PM 31.3180 -81.4180 North 444 511 35,000  Level FlightAware ADS-B
Wed 02:02:54 PM 31.4070 -81.3950 12° North 442 509 35,000  Level FlightAware ADS-B
Wed 02:03:42 PM 31.5080 -81.3420 24° Northeast 492 566 35,000  Level FlightAware ADS-B
Wed 02:04:15 PM 31.5640 -81.2900 38° Northeast 497 572 35,000  Level FlightAware ADS-B
Wed 02:04:54 PM 31.6340 -81.2250 38° Northeast 498 573 35,000  Level FlightAware ADS-B
Wed 02:05:38 PM 31.7110 -81.1540 38° Northeast 499 574 35,000  Level FlightAware ADS-B
Wed 02:06:10 PM 31.7710 -81.0990 38° Northeast 501 577 35,000  Level FlightAware ADS-B
Wed 02:06:34 PM 31.8160 -81.0560 39° Northeast 502 578 35,000  Level FlightAware ADS-B
Wed 02:07:11 PM 31.8830 -80.9940 38° Northeast 502 578 35,000  Level FlightAware ADS-B
Wed 02:07:59 PM 31.9710 -80.9120 38° Northeast 500 575 35,000  Level FlightAware ADS-B
Wed 02:08:31 PM 32.0270 -80.8590 39° Northeast 500 575 35,000  Level FlightAware ADS-B
Wed 02:09:29 PM 32.1260 -80.7660 38° Northeast 513 590 35,000  Level FlightAware ADS-B
Wed 02:10:11 PM 32.2150 -80.6830 38° Northeast 515 593 35,000  Level FlightAware ADS-B
Wed 02:10:40 PM 32.2710 -80.6300 39° Northeast 512 589 35,000  Level FlightAware ADS-B
Wed 02:11:08 PM 32.3170 -80.5860 39° Northeast 512 589 35,000  Level FlightAware ADS-B
Wed 02:11:50 PM 32.3990 -80.5080 39° Northeast 510 587 35,000  Level FlightAware ADS-B
Wed 02:12:24 PM 32.4590 -80.4510 39° Northeast 507 583 35,000  Level FlightAware ADS-B
Wed 02:13:31 PM 32.5850 -80.3320 38° Northeast 506 582 35,000  Level FlightAware ADS-B
Wed 02:14:12 PM 32.6570 -80.2630 39° Northeast 506 582 35,000  Level FlightAware ADS-B
Wed 02:14:49 PM 32.7260 -80.1970 39° Northeast 508 585 35,000  Level FlightAware ADS-B
Wed 02:15:19 PM 32.7830 -80.1430 39° Northeast 511 588 35,000  Level FlightAware ADS-B
Wed 02:15:57 PM 32.8500 -80.0790 39° Northeast 512 589 35,000  Level FlightAware ADS-B
Wed 02:16:24 PM 32.9020 -80.0290 39° Northeast 511 588 35,000  Level FlightAware ADS-B
Wed 02:17:13 PM 32.9670 -79.9660 39° Northeast 511 588 35,000  Level FlightAware ADS-B
Wed 02:18:26 PM 33.1250 -79.8140 39° Northeast 510 587 35,000  Level FlightAware ADS-B
Wed 02:19:24 PM 33.2330 -79.7090 39° Northeast 512 589 35,000  Level FlightAware ADS-B
Wed 02:20:16 PM 33.3240 -79.6200 39° Northeast 514 592 35,000  Level FlightAware ADS-B
Wed 02:21:00 PM 33.4060 -79.5400 39° Northeast 514 592 35,000 77 Level FlightAware ADS-B
Wed 02:21:34 PM 33.4690 -79.4780 39° Northeast 511 588 35,100  Climbing FlightAware ADS-B
Wed 02:22:10 PM 33.5330 -79.4160 39° Northeast 509 586 35,000 -85 Descending FlightAware ADS-B
Wed 02:22:45 PM 33.5960 -79.3540 39° Northeast 506 582 35,000  Level FlightAware ADS-B
Wed 02:23:44 PM 33.7060 -79.2460 39° Northeast 506 582 35,000 61 Level FlightAware ADS-B
Wed 02:24:24 PM 33.7720 -79.1800 40° Northeast 502 578 35,100  Climbing FlightAware ADS-B
Wed 02:25:04 PM 33.8480 -79.1050 39° Northeast 499 574 35,000 -63 Descending FlightAware ADS-B
Wed 02:26:00 PM 33.9480 -79.0070 39° Northeast 496 571 35,000  Level FlightAware ADS-B
Wed 02:26:35 PM 34.0080 -78.9470 40° Northeast 496 571 35,000  Level FlightAware ADS-B
Wed 02:27:06 PM 34.0650 -78.8900 40° Northeast 495 570 35,000  Level FlightAware ADS-B
Wed 02:27:41 PM 34.1270 -78.8290 39° Northeast 495 570 35,000  Level FlightAware ADS-B
Wed 02:28:45 PM 34.2090 -78.7460 40° Northeast 495 570 35,000  Level FlightAware ADS-B
Wed 02:29:40 PM 34.3010 -78.6540 40° Northeast 496 571 35,000  Level FlightAware ADS-B
Wed 02:30:19 PM 34.3730 -78.5820 40° Northeast 498 573 35,000  Level FlightAware ADS-B
Wed 02:30:54 PM 34.4330 -78.5210 40° Northeast 498 573 35,000  Level FlightAware ADS-B
Wed 02:31:53 PM 34.5400 -78.4120 40° Northeast 500 575 35,000  Level FlightAware ADS-B
Wed 02:32:23 PM 34.5920 -78.3600 39° Northeast 499 574 35,000 67 Level FlightAware ADS-B
Wed 02:33:23 PM 34.6890 -78.2660 39° Northeast 489 563 35,100 61 Climbing FlightAware ADS-B
Wed 02:34:02 PM 34.7590 -78.2100 33° Northeast 479 551 35,100 -61 Level FlightAware ADS-B
Wed 02:35:02 PM 34.8780 -78.1180 32° Northeast 474 545 35,000 -63 Descending FlightAware ADS-B
Wed 02:35:37 PM 34.9270 -78.0800 32° Northeast 474 545 35,000  Level FlightAware ADS-B
Wed 02:36:06 PM 34.9790 -78.0390 33° Northeast 473 544 35,000  Level FlightAware ADS-B
Wed 02:36:33 PM 35.0840 -77.9570 33° Northeast 475 547 35,000 -474 Level FlightAware ADS-B
Wed 02:37:22 PM 35.1770 -77.8840 33° Northeast 469 540 34,400 -759 Descending FlightAware ADS-B
Wed 02:38:00 PM 35.2460 -77.8300 33° Northeast 461 531 33,900 -742 Descending FlightAware ADS-B
Wed 02:38:59 PM 35.3510 -77.7470 33° Northeast 450 518 33,200 -478 Descending FlightAware ADS-B
Wed 02:39:53 PM 35.4450 -77.6740 32° Northeast 447 514 33,000 -138 Descending FlightAware ADS-B
Wed 02:40:26 PM 35.5020 -77.6290 33° Northeast 448 516 33,000  Level FlightAware ADS-B
Wed 02:41:11 PM 35.5790 -77.5680 33° Northeast 447 514 33,000  Level FlightAware ADS-B
Wed 02:41:48 PM 35.6410 -77.5180 33° Northeast 451 519 33,000  Level FlightAware ADS-B
Wed 02:42:45 PM 35.7420 -77.4380 33° Northeast 451 519 33,000  Level FlightAware ADS-B
Wed 02:43:21 PM 35.8030 -77.3890 33° Northeast 452 520 33,000  Level FlightAware ADS-B
Wed 02:44:00 PM 35.8730 -77.3330 33° Northeast 449 517 33,000  Level FlightAware ADS-B
Wed 02:44:50 PM 35.9580 -77.2630 34° Northeast 451 519 33,000  Level FlightAware ADS-B
Wed 02:45:50 PM 36.0580 -77.1800 34° Northeast 445 512 33,000  Level FlightAware ADS-B
Wed 02:46:22 PM 36.1160 -77.1310 34° Northeast 444 511 33,000  Level FlightAware ADS-B
Wed 02:46:49 PM 36.1590 -77.0950 34° Northeast 444 511 33,000  Level FlightAware ADS-B
Wed 02:47:42 PM 36.2520 -77.0170 34° Northeast 430 495 33,000  Level FlightAware ADS-B
Wed 02:48:32 PM 36.3370 -76.9470 34° Northeast 429 494 33,000 -71 Level FlightAware ADS-B
Wed 02:49:07 PM 36.3930 -76.8990 35° Northeast 427 491 32,900 -560 Descending FlightAware ADS-B
Wed 02:49:47 PM 36.4490 -76.8520 34° Northeast 414 476 32,300 -960 Descending FlightAware ADS-B
Wed 02:50:22 PM 36.5140 -76.7980 34° Northeast 416 479 31,700 -600 Descending FlightAware ADS-B
Wed 02:50:57 PM 36.5590 -76.7600 34° Northeast 416 479 31,600 -701 Descending FlightAware ADS-B
Wed 02:51:39 PM 36.6340 -76.6970 34° Northeast 428 493 30,800 -1,417 Descending FlightAware ADS-B
Wed 02:52:09 PM 36.7000 -76.6670 20° North 419 482 29,900 -1,333 Descending FlightAware ADS-B
Wed 02:52:42 PM 36.7580 -76.6370 23° Northeast 418 481 29,400 -930 Descending FlightAware ADS-B
Wed 02:53:20 PM 36.8240 -76.6040 22° Northeast 410 472 28,800 -985 Descending FlightAware ADS-B
Wed 02:53:49 PM 36.8740 -76.5790 22° Northeast 406 467 28,300 -909 Descending FlightAware ADS-B
Wed 02:54:26 PM 36.9350 -76.5460 23° Northeast 404 465 27,800 -659 Descending FlightAware ADS-B
Wed 02:55:11 PM 37.0020 -76.4870 35° Northeast 408 470 27,400 -653 Descending FlightAware ADS-B
Wed 02:56:07 PM 37.0830 -76.4090 38° Northeast 404 465 26,700 -1,247 Descending FlightAware ADS-B
Wed 02:56:28 PM 37.1190 -76.3740 38° Northeast 402 463 25,800 -1,452 Descending FlightAware ADS-B
Wed 02:57:09 PM 37.1740 -76.3220 37° Northeast 385 443 25,200 -545 Descending FlightAware ADS-B
Wed 02:57:56 PM 37.2450 -76.2540 37° Northeast 372 428 25,000 -150 Descending FlightAware ADS-B
Wed 02:58:29 PM 37.2820 -76.2190 37° Northeast 366 421 25,000  Level FlightAware ADS-B
Wed 02:58:49 PM 37.3100 -76.1910 38° Northeast 365 420 25,000  Level FlightAware ADS-B
Wed 02:59:27 PM 37.3660 -76.1370 37° Northeast 370 426 25,000  Level FlightAware ADS-B
Wed 03:00:39 PM 37.4640 -76.0430 37° Northeast 367 422 25,000  Level FlightAware ADS-B
Wed 03:01:35 PM 37.5390 -75.9700 38° Northeast 365 420 25,000  Level FlightAware ADS-B
Wed 03:02:10 PM 37.5870 -75.9240 37° Northeast 363 418 25,000  Level FlightAware ADS-B
Wed 03:02:47 PM 37.6310 -75.8820 37° Northeast 362 417 25,000  Level FlightAware ADS-B
Wed 03:03:12 PM 37.6690 -75.8440 38° Northeast 362 417 25,000  Level FlightAware ADS-B
Wed 03:04:17 PM 37.7560 -75.7600 37° Northeast 363 418 25,000  Level FlightAware ADS-B
Wed 03:04:52 PM 37.8020 -75.7150 38° Northeast 364 419 25,000  Level FlightAware ADS-B
Wed 03:05:54 PM 37.8830 -75.6350 38° Northeast 364 419 25,000 -255 Level FlightAware ADS-B
Wed 03:06:26 PM 37.9270 -75.5920 38° Northeast 353 406 24,600 -917 Descending FlightAware ADS-B
Wed 03:07:06 PM 37.9790 -75.5400 38° Northeast 349 402 23,900 -1,000 Descending FlightAware ADS-B
Wed 03:07:32 PM 38.0130 -75.5070 37° Northeast 347 399 23,500 -842 Descending FlightAware ADS-B
Wed 03:08:03 PM 38.0460 -75.4750 37° Northeast 355 409 23,100 -966 Descending FlightAware ADS-B
Wed 03:08:59 PM 38.1330 -75.4160 28° Northeast 339 390 22,100 -966 Descending FlightAware ADS-B
Wed 03:09:30 PM 38.1720 -75.3920 26° Northeast 343 395 21,700 -909 Descending FlightAware ADS-B
Wed 03:10:05 PM 38.2260 -75.3580 26° Northeast 341 392 21,100 -1,082 Descending FlightAware ADS-B
Wed 03:10:31 PM 38.2600 -75.3360 27° Northeast 339 390 20,600 -1,029 Descending FlightAware ADS-B
Wed 03:11:15 PM 38.3220 -75.2970 26° Northeast 338 389 19,900 -982 Descending FlightAware ADS-B
Wed 03:12:21 PM 38.4190 -75.2350 27° Northeast 329 379 18,800 -990 Descending FlightAware ADS-B
Wed 03:12:52 PM 38.4590 -75.2090 27° Northeast 325 374 18,300 -930 Descending FlightAware ADS-B
Wed 03:13:32 PM 38.5170 -75.1730 26° Northeast 328 377 17,700 -1,268 Descending FlightAware ADS-B
Wed 03:14:03 PM 38.5560 -75.1480 27° Northeast 323 372 16,800 -1,800 Descending FlightAware ADS-B
Wed 03:14:32 PM 38.5980 -75.1210 27° Northeast 326 375 15,900 -1,932 Descending FlightAware ADS-B
Wed 03:15:02 PM 38.6390 -75.0950 26° Northeast 321 369 14,900 -1,043 Descending FlightAware ADS-B
Wed 03:15:41 PM 38.6900 -75.0620 27° Northeast 322 371 14,700 -114 Descending FlightAware ADS-B
Wed 03:16:47 PM 38.7780 -75.0060 26° Northeast 321 369 14,700  Level FlightAware ADS-B
Wed 03:17:47 PM 38.8550 -74.9560 27° Northeast 313 360 14,700  Level FlightAware ADS-B
Wed 03:18:16 PM 38.8960 -74.9300 26° Northeast 321 369 14,700  Level FlightAware ADS-B
Wed 03:19:16 PM 38.9770 -74.8770 27° Northeast 318 366 14,700  Level FlightAware ADS-B
Wed 03:20:04 PM 39.0400 -74.8370 26° Northeast 319 367 14,700 -150 Level FlightAware ADS-B
Wed 03:20:36 PM 39.0820 -74.8110 26° Northeast 303 349 14,500 -706 Descending FlightAware ADS-B
Wed 03:21:12 PM 39.1270 -74.8130 358° North 275 316 13,900 -1,029 Descending FlightAware ADS-B
Wed 03:21:46 PM 39.1680 -74.8280 344° North 254 292 13,300 -909 Descending FlightAware ADS-B
Wed 03:22:18 PM 39.2050 -74.8420 344° North 248 285 12,900 -806 Descending FlightAware ADS-B
Wed 03:22:53 PM 39.2420 -74.8550 345° North 250 288 12,400 -742 Descending FlightAware ADS-B
Wed 03:23:55 PM 39.3140 -74.8820 344° North 252 290 11,700 -680 Descending FlightAware ADS-B
Wed 03:24:30 PM 39.3510 -74.8960 344° North 252 290 11,300 -656 Descending FlightAware ADS-B
Wed 03:24:59 PM 39.3850 -74.9090 344° North 254 292 11,000 -716 Descending FlightAware ADS-B
Wed 03:25:37 PM 39.4270 -74.9250 344° North 254 292 10,500 -720 Descending FlightAware ADS-B
Wed 03:26:14 PM 39.4680 -74.9410 343° North 251 289 10,100 -609 Descending FlightAware ADS-B
Wed 03:26:46 PM 39.5050 -74.9550 344° North 250 288 9,800 -387 Descending FlightAware ADS-B
Wed 03:27:16 PM 39.5380 -74.9650 347° North 250 288 9,700 -100 Descending FlightAware ADS-B
Wed 03:27:46 PM 39.5650 -74.9580 11° North 251 289 9,700  Level FlightAware ADS-B
Wed 03:28:16 PM 39.6050 -74.9450 14° North 247 284 9,700  Level FlightAware ADS-B
Wed 03:28:56 PM 39.6490 -74.9310 14° North 248 285 9,700  Level FlightAware ADS-B
Wed 03:29:26 PM 39.6830 -74.9200 14° North 250 288 9,700 -469 Level FlightAware ADS-B
Wed 03:30:00 PM 39.7210 -74.9070 15° North 250 288 9,200 -957 Descending FlightAware ADS-B
Wed 03:30:35 PM 39.7610 -74.8940 14° North 253 291 8,600 -1,000 Descending FlightAware ADS-B
Wed 03:31:12 PM 39.8020 -74.8810 14° North 251 289 8,000 -740 Descending FlightAware ADS-B
Wed 03:31:48 PM 39.8430 -74.8670 15° North 253 291 7,700 -321 Descending FlightAware ADS-B
Wed 03:32:08 PM 39.8660 -74.8600 13° North 248 285 7,700  Level FlightAware ADS-B
Wed 03:32:48 PM 39.9100 -74.8450 15° North 251 289 7,700 -480 Level FlightAware ADS-B
Wed 03:33:23 PM 39.9460 -74.8340 13° North 238 274 7,100 -1,543 Descending FlightAware ADS-B
Wed 03:33:58 PM 39.9890 -74.8190 15° North 247 284 5,900 -1,704 Descending FlightAware ADS-B
Wed 03:34:44 PM 40.0400 -74.8020 14° North 233 268 4,800 -1,371 Descending FlightAware ADS-B
Wed 03:35:08 PM 40.0650 -74.7940 14° North 218 251 4,300 -941 Descending FlightAware ADS-B
Wed 03:35:35 PM 40.0900 -74.7860 14° North 207 238 4,000 -655 Descending FlightAware ADS-B
Wed 03:36:03 PM 40.1140 -74.7710 26° Northeast 191 220 3,700 -610 Descending FlightAware ADS-B
Wed 03:36:34 PM 40.1380 -74.7550 27° Northeast 178 205 3,400 -787 Descending FlightAware ADS-B
Wed 03:37:04 PM 40.1600 -74.7410 26° Northeast 171 197 2,900 -1,000 Descending FlightAware ADS-B
Wed 03:37:28 PM 40.1770 -74.7340 17° North 162 186 2,500 -1,279 Descending FlightAware ADS-B
Wed 03:38:05 PM 40.2020 -74.7460 340° North 162 186 1,600 -1,216 Descending FlightAware ADS-B
Wed 03:38:42 PM 40.2240 -74.7650 327° Northwest 149 171 1,000 -857 Descending FlightAware ADS-B
Wed 03:39:08 PM 40.2380 -74.7770 327° Northwest 144 166 700 -353 Descending FlightAware ADS-B
Wed 03:39:33 PM 40.2500 -74.7870 328° Northwest 144 166 700  Level FlightAware ADS-B

Login

Don't have an account? Register now (free) for customized features, flight alerts, and more!